createdAt,value
2022-08-05T00:00:43.097Z,100.00
2022-08-05T00:03:15.675Z,100.00
2022-08-05T00:06:04.661Z,100.00
2022-08-05T00:08:36.199Z,100.00
2022-08-05T00:11:30.172Z,100.00
2022-08-05T00:13:58.184Z,100.00
2022-08-05T00:16:35.396Z,100.00
2022-08-05T00:19:05.219Z,100.00
2022-08-05T00:21:35.891Z,100.00
2022-08-05T00:24:10.561Z,100.00
2022-08-05T00:26:46.701Z,100.00
2022-08-05T00:30:29.254Z,100.00
2022-08-05T00:32:59.780Z,100.00
2022-08-05T00:35:33.325Z,100.00
2022-08-05T00:38:03.492Z,100.00
2022-08-05T00:40:53.289Z,100.00
2022-08-05T00:43:21.549Z,100.00
2022-08-05T00:45:49.528Z,100.00
2022-08-05T00:48:27.670Z,100.00
2022-08-05T00:50:59.593Z,100.00
2022-08-05T00:54:00.575Z,100.00
2022-08-05T00:56:24.973Z,100.00
2022-08-05T00:58:52.667Z,100.00
2022-08-05T01:01:24.935Z,100.00
2022-08-05T01:04:14.304Z,100.00
2022-08-05T01:06:48.537Z,100.00
2022-08-05T01:09:20.008Z,100.00
2022-08-05T01:11:51.705Z,100.00
2022-08-05T01:14:28.420Z,100.00
2022-08-05T01:17:58.033Z,100.00
2022-08-05T01:20:31.625Z,100.00
2022-08-05T01:23:15.295Z,100.00
2022-08-05T01:27:01.041Z,100.00
2022-08-05T01:29:51.840Z,100.00
2022-08-05T01:32:23.841Z,100.00
2022-08-05T01:34:58.343Z,100.00
2022-08-05T01:37:32.246Z,100.00
2022-08-05T01:40:03.037Z,100.00
2022-08-05T01:42:33.063Z,100.00
2022-08-05T01:45:03.463Z,100.00
2022-08-05T01:47:39.277Z,100.00
2022-08-05T01:50:15.314Z,100.00
2022-08-05T01:52:44.642Z,100.00
2022-08-05T01:55:19.873Z,100.00
2022-08-05T01:58:11.867Z,100.00
2022-08-05T02:00:44.399Z,100.00
2022-08-05T02:03:29.030Z,100.00
2022-08-05T02:06:03.748Z,100.00
2022-08-05T02:08:58.549Z,100.00
2022-08-05T02:11:32.751Z,100.00
2022-08-05T02:14:07.233Z,100.00
2022-08-05T02:18:31.988Z,100.00
2022-08-05T02:20:41.671Z,100.00
2022-08-05T02:23:12.187Z,100.00
2022-08-05T02:25:49.229Z,100.00
2022-08-05T02:28:28.882Z,100.00
2022-08-05T02:32:04.862Z,100.00
2022-08-05T02:34:34.008Z,100.00
2022-08-05T02:37:05.473Z,100.00
2022-08-05T02:39:36.991Z,100.00
2022-08-05T02:42:10.820Z,100.00
2022-08-05T02:44:56.364Z,100.00
2022-08-05T02:47:26.016Z,100.00
2022-08-05T02:51:17.978Z,100.00
2022-08-05T02:54:03.422Z,100.00
2022-08-05T02:56:33.683Z,100.00
2022-08-05T02:59:02.484Z,100.00
2022-08-05T03:01:33.277Z,100.00
2022-08-05T03:04:13.998Z,100.00
2022-08-05T03:06:54.363Z,100.00
2022-08-05T03:09:37.608Z,100.00
2022-08-05T03:12:11.756Z,100.00
2022-08-05T03:14:46.006Z,100.00
2022-08-05T03:17:16.656Z,100.00
2022-08-05T03:19:45.570Z,100.00
2022-08-05T03:22:16.832Z,100.00
2022-08-05T03:24:50.931Z,100.00
2022-08-05T03:27:19.767Z,100.00
2022-08-05T03:30:07.530Z,100.00
2022-08-05T03:32:36.112Z,100.00
2022-08-05T03:35:04.484Z,100.00
2022-08-05T03:37:46.558Z,100.00
2022-08-05T03:40:31.144Z,100.00
2022-08-05T03:43:15.912Z,100.00
2022-08-05T03:45:58.037Z,100.00
2022-08-05T03:48:27.566Z,100.00
2022-08-05T03:52:38.086Z,100.00
2022-08-05T03:56:00.722Z,100.00
2022-08-05T03:56:52.813Z,100.00
2022-08-05T03:59:26.082Z,100.00
2022-08-05T04:01:58.903Z,100.00
2022-08-05T04:04:30.007Z,100.00
2022-08-05T04:06:59.200Z,100.00
2022-08-05T04:09:27.950Z,100.00
2022-08-05T04:11:58.173Z,100.00
2022-08-05T04:14:29.823Z,100.00
2022-08-05T04:17:00.078Z,100.00
2022-08-05T04:19:29.762Z,100.00
2022-08-05T04:22:09.508Z,100.00
2022-08-05T04:24:43.828Z,100.00
2022-08-05T04:27:15.293Z,100.00
2022-08-05T04:29:43.573Z,100.00
2022-08-05T04:33:13.094Z,100.00
2022-08-05T04:36:15.804Z,100.00
2022-08-05T04:38:39.576Z,100.00
2022-08-05T04:41:09.602Z,100.00
2022-08-05T04:43:48.151Z,100.00
2022-08-05T04:46:28.231Z,100.00
2022-08-05T04:48:58.686Z,100.00
2022-08-05T04:51:30.309Z,100.00
2022-08-05T04:53:59.291Z,100.00
2022-08-05T04:56:34.326Z,100.00
2022-08-05T04:59:21.996Z,100.00
2022-08-05T05:02:06.850Z,100.00
2022-08-05T05:04:47.568Z,100.00
2022-08-05T05:07:23.944Z,100.00
2022-08-05T05:09:57.421Z,100.00
2022-08-05T05:12:27.562Z,100.00
2022-08-05T05:15:03.759Z,100.00
2022-08-05T05:17:57.067Z,100.00
2022-08-05T05:20:28.328Z,100.00
2022-08-05T05:22:56.846Z,100.00
2022-08-05T05:25:40.421Z,100.00
2022-08-05T05:28:09.673Z,100.00
2022-08-05T05:30:41.868Z,100.00
2022-08-05T05:33:17.095Z,100.00
2022-08-05T05:35:47.483Z,100.00
2022-08-05T05:38:22.862Z,100.00
2022-08-05T05:40:55.072Z,100.00
2022-08-05T05:43:54.201Z,100.00
2022-08-05T05:46:15.788Z,100.00
2022-08-05T05:48:48.323Z,100.00
2022-08-05T05:51:23.931Z,100.00
2022-08-05T05:53:57.697Z,100.00
2022-08-05T05:56:33.306Z,100.00
2022-08-05T05:59:05.248Z,100.00
2022-08-05T06:01:37.539Z,100.00
2022-08-05T06:04:11.695Z,100.00
2022-08-05T06:07:42.467Z,100.00
2022-08-05T06:10:29.250Z,100.00
2022-08-05T06:12:57.270Z,100.00
2022-08-05T06:15:25.824Z,100.00
2022-08-05T06:18:15.327Z,100.00
2022-08-05T06:20:43.296Z,100.00
2022-08-05T06:23:16.662Z,100.00
2022-08-05T06:26:13.387Z,100.00
2022-08-05T06:28:32.566Z,100.00
2022-08-05T06:31:01.138Z,100.00
2022-08-05T06:34:07.156Z,100.00
2022-08-05T06:36:29.638Z,100.00
2022-08-05T06:39:18.074Z,100.00
2022-08-05T06:41:50.667Z,100.00
2022-08-05T06:44:22.061Z,100.00
2022-08-05T06:46:51.268Z,100.00
2022-08-05T06:50:01.421Z,100.00
2022-08-05T06:52:36.978Z,100.00
2022-08-05T06:54:59.539Z,100.00
2022-08-05T06:58:03.714Z,100.00
2022-08-05T07:00:22.314Z,100.00
2022-08-05T07:02:54.416Z,100.00
2022-08-05T07:05:37.245Z,100.00
2022-08-05T07:08:06.419Z,100.00
2022-08-05T07:10:39.245Z,100.00
2022-08-05T07:13:57.786Z,100.00
2022-08-05T07:18:00.303Z,100.00
2022-08-05T07:20:10.521Z,100.00
2022-08-05T07:22:29.064Z,100.00
2022-08-05T07:24:59.879Z,100.00
2022-08-05T07:27:57.400Z,100.00
2022-08-05T07:30:39.149Z,100.00
2022-08-05T07:33:10.413Z,100.00
2022-08-05T07:36:03.727Z,100.00
2022-08-05T07:38:42.835Z,100.00
2022-08-05T07:42:14.318Z,100.00
2022-08-05T07:44:14.489Z,100.00
2022-08-05T07:46:49.274Z,100.00
2022-08-05T07:49:18.906Z,100.00
2022-08-05T07:51:53.717Z,100.00
2022-08-05T07:54:31.413Z,100.00
2022-08-05T07:57:17.982Z,100.00
2022-08-05T07:59:52.534Z,100.00
2022-08-05T08:02:26.478Z,100.00
2022-08-05T08:04:55.120Z,100.00
2022-08-05T08:07:23.378Z,100.00
2022-08-05T08:09:54.916Z,100.00
2022-08-05T08:12:37.518Z,100.00
2022-08-05T08:15:15.404Z,100.00
2022-08-05T08:17:52.309Z,100.00
2022-08-05T08:21:00.312Z,100.00
2022-08-05T08:24:00.323Z,100.00
2022-08-05T08:26:02.888Z,100.00
2022-08-05T08:28:36.050Z,100.00
2022-08-05T08:31:05.273Z,100.00
2022-08-05T08:33:38.063Z,100.00
2022-08-05T08:38:57.738Z,100.00
2022-08-05T08:41:51.287Z,100.00
2022-08-05T08:45:22.721Z,100.00
2022-08-05T08:47:21.876Z,100.00
2022-08-05T08:50:23.042Z,100.00
2022-08-05T08:52:51.790Z,100.00
2022-08-05T08:56:02.521Z,100.00
2022-08-05T08:58:16.717Z,100.00
2022-08-05T09:00:44.784Z,100.00
2022-08-05T09:03:16.138Z,100.00
2022-08-05T09:06:09.161Z,100.00
2022-08-05T09:08:40.087Z,100.00
2022-08-05T09:11:13.617Z,100.00
2022-08-05T09:14:00.803Z,100.00
2022-08-05T09:16:32.235Z,100.00
2022-08-05T09:19:00.131Z,100.00
2022-08-05T09:22:23.110Z,100.00
2022-08-05T09:24:17.733Z,100.00
2022-08-05T09:26:48.356Z,100.00
2022-08-05T09:29:21.062Z,100.00
2022-08-05T09:32:42.353Z,100.00
2022-08-05T09:34:54.884Z,100.00
2022-08-05T09:38:16.512Z,100.00
2022-08-05T09:40:31.077Z,100.00
2022-08-05T09:43:00.192Z,100.00
2022-08-05T09:46:06.860Z,100.00
2022-08-05T09:48:32.363Z,100.00
2022-08-05T09:51:01.859Z,100.00
2022-08-05T09:53:53.550Z,100.00
2022-08-05T09:56:27.487Z,100.00
2022-08-05T09:58:59.880Z,100.00
2022-08-05T10:01:32.478Z,100.00
2022-08-05T10:04:03.671Z,100.00
2022-08-05T10:06:32.015Z,100.00
2022-08-05T10:09:27.266Z,100.00
2022-08-05T10:11:56.211Z,100.00
2022-08-05T10:14:26.820Z,100.00
2022-08-05T10:16:57.315Z,100.00
2022-08-05T10:19:31.858Z,100.00
2022-08-05T10:22:15.640Z,100.00
2022-08-05T10:24:57.901Z,100.00
2022-08-05T10:28:09.709Z,100.00
2022-08-05T10:31:20.052Z,100.00
2022-08-05T10:33:08.969Z,97.91
2022-08-05T10:35:43.901Z,95.88
2022-08-05T10:38:14.162Z,93.73
2022-08-05T10:40:49.000Z,94.19
2022-08-05T10:43:30.837Z,92.48
2022-08-05T10:46:07.673Z,93.11
2022-08-05T10:48:56.868Z,90.49
2022-08-05T10:51:28.956Z,91.01
2022-08-05T10:54:00.972Z,91.20
2022-08-05T10:56:32.060Z,87.70
2022-08-05T11:00:01.279Z,85.04
2022-08-05T11:02:08.610Z,84.23
2022-08-05T11:04:59.441Z,85.43
2022-08-05T11:07:33.049Z,83.11
2022-08-05T11:10:23.117Z,83.91
2022-08-05T11:12:56.510Z,82.86
2022-08-05T11:16:00.803Z,83.72
2022-08-05T11:18:30.154Z,84.13
2022-08-05T11:21:11.304Z,79.54
2022-08-05T11:24:04.297Z,78.44
2022-08-05T11:26:33.346Z,76.23
2022-08-05T11:29:12.729Z,80.54
2022-08-05T11:31:58.906Z,83.96
2022-08-05T11:34:47.413Z,78.63
2022-08-05T11:38:28.067Z,75.76
2022-08-05T11:41:12.859Z,75.38
2022-08-05T11:44:05.559Z,76.88
2022-08-05T11:47:09.537Z,76.59
2022-08-05T11:49:34.062Z,75.55
2022-08-05T11:52:11.166Z,77.20
2022-08-05T11:54:41.671Z,75.68
2022-08-05T11:57:25.169Z,75.47
2022-08-05T11:59:55.016Z,74.08
2022-08-05T12:02:30.489Z,75.66
2022-08-05T12:05:01.095Z,75.82
2022-08-05T12:08:07.901Z,75.24
2022-08-05T12:10:24.801Z,77.40
2022-08-05T12:13:16.855Z,79.93
2022-08-05T12:15:49.798Z,79.76
2022-08-05T12:18:20.616Z,79.00
2022-08-05T12:20:52.845Z,78.51
2022-08-05T12:23:20.499Z,76.26
2022-08-05T12:25:56.930Z,76.59
2022-08-05T12:28:37.089Z,76.49
2022-08-05T12:32:09.562Z,75.54
2022-08-05T12:34:38.683Z,72.94
2022-08-05T12:37:17.033Z,73.20
2022-08-05T12:39:51.434Z,72.15
2022-08-05T12:42:25.430Z,69.54
2022-08-05T12:45:02.947Z,69.74
2022-08-05T12:48:01.018Z,71.18
2022-08-05T12:50:27.203Z,66.81
2022-08-05T12:52:59.742Z,72.39
2022-08-05T12:55:33.066Z,67.82
2022-08-05T12:58:49.717Z,70.54
2022-08-05T13:02:00.102Z,72.90
2022-08-05T13:03:43.021Z,73.45
2022-08-05T13:06:16.372Z,73.58
2022-08-05T13:08:52.499Z,75.74
2022-08-05T13:11:47.058Z,73.93
2022-08-05T13:14:19.413Z,72.22
2022-08-05T13:16:51.401Z,68.26
2022-08-05T13:19:22.948Z,65.26
2022-08-05T13:21:55.918Z,62.26
2022-08-05T13:24:45.003Z,62.08
2022-08-05T13:30:53.914Z,60.27
2022-08-05T13:34:21.354Z,61.02
2022-08-05T13:36:14.385Z,59.45
2022-08-05T13:38:43.277Z,54.14
2022-08-05T13:41:11.682Z,52.61
2022-08-05T13:43:44.528Z,51.13
2022-08-05T13:46:37.720Z,52.06
2022-08-05T13:49:12.742Z,51.21
2022-08-05T13:51:46.659Z,50.24
2022-08-05T13:54:16.062Z,47.43
2022-08-05T13:56:50.775Z,43.06
2022-08-05T13:59:21.318Z,47.03
2022-08-05T14:01:57.406Z,46.65
2022-08-05T14:04:49.843Z,45.46
2022-08-05T14:07:57.027Z,43.79
2022-08-05T14:10:12.378Z,41.63
2022-08-05T14:12:42.911Z,43.09
2022-08-05T14:16:04.312Z,42.42
2022-08-05T14:18:01.019Z,41.76
2022-08-05T14:20:30.825Z,41.82
2022-08-05T14:22:58.617Z,42.79
2022-08-05T14:25:28.427Z,43.48
2022-08-05T14:27:58.462Z,39.70
2022-08-05T14:30:27.869Z,40.93
2022-08-05T14:32:56.890Z,39.18
2022-08-05T14:35:37.534Z,38.60
2022-08-05T14:38:32.937Z,42.81
2022-08-05T14:41:06.685Z,41.07
2022-08-05T14:44:02.298Z,42.44
2022-08-05T14:46:29.101Z,39.07
2022-08-05T14:48:58.705Z,37.79
2022-08-05T14:51:30.808Z,38.13
2022-08-05T14:54:25.891Z,39.31
2022-08-05T14:56:54.576Z,38.06
2022-08-05T14:59:22.829Z,38.00
2022-08-05T15:01:51.444Z,38.30
2022-08-05T15:04:23.516Z,40.31
2022-08-05T15:06:56.053Z,41.45
2022-08-05T15:09:52.223Z,41.21
2022-08-05T15:12:16.452Z,39.32
2022-08-05T15:14:49.525Z,39.98
2022-08-05T15:17:47.709Z,37.63
2022-08-05T15:20:17.206Z,39.10
2022-08-05T15:22:53.979Z,38.96
2022-08-05T15:25:50.859Z,38.87
2022-08-05T15:28:14.395Z,38.41
2022-08-05T15:30:43.307Z,37.70
2022-08-05T15:33:11.730Z,39.34
2022-08-05T15:35:45.399Z,38.49
2022-08-05T15:38:34.854Z,36.90
2022-08-05T15:41:23.235Z,38.88
2022-08-05T15:43:52.224Z,36.99
2022-08-05T15:46:24.076Z,36.34
2022-08-05T15:49:01.062Z,35.56
2022-08-05T15:52:13.375Z,36.37
2022-08-05T15:54:35.176Z,35.18
2022-08-05T15:58:07.394Z,37.56
2022-08-05T16:00:56.998Z,35.31
2022-08-05T16:04:29.804Z,36.54
2022-08-05T16:06:58.156Z,34.43
2022-08-05T16:09:26.163Z,35.12
2022-08-05T16:11:54.447Z,33.50
2022-08-05T16:14:24.115Z,36.66
2022-08-05T16:16:54.727Z,34.49
2022-08-05T16:20:03.505Z,34.46
2022-08-05T16:22:13.327Z,33.54
2022-08-05T16:24:51.784Z,35.18
2022-08-05T16:27:47.279Z,32.38
2022-08-05T16:30:23.014Z,33.54
2022-08-05T16:32:55.340Z,33.67
2022-08-05T16:35:27.691Z,33.80
2022-08-05T16:38:16.109Z,35.03
2022-08-05T16:40:51.615Z,34.95
2022-08-05T16:43:24.286Z,32.94
2022-08-05T16:46:03.761Z,34.64
2022-08-05T16:48:38.920Z,34.99
2022-08-05T16:51:09.748Z,36.59
2022-08-05T16:54:04.304Z,36.57
2022-08-05T16:57:53.334Z,35.76
2022-08-05T17:00:26.306Z,36.89
2022-08-05T17:03:09.123Z,38.49
2022-08-05T17:05:44.741Z,36.46
2022-08-05T17:08:36.348Z,36.20
2022-08-05T17:11:12.544Z,39.00
2022-08-05T17:13:44.663Z,36.90
2022-08-05T17:16:29.935Z,37.00
2022-08-05T17:19:01.674Z,37.68
2022-08-05T17:21:35.680Z,36.82
2022-08-05T17:24:18.471Z,40.38
2022-08-05T17:26:53.715Z,39.30
2022-08-05T17:29:33.646Z,39.35
2022-08-05T17:32:11.781Z,37.84
2022-08-05T17:34:44.740Z,39.14
2022-08-05T17:37:41.165Z,37.76
2022-08-05T17:40:12.245Z,38.88
2022-08-05T17:42:51.369Z,40.93
2022-08-05T17:45:25.016Z,42.32
2022-08-05T17:47:57.631Z,42.52
2022-08-05T17:50:30.811Z,44.17
2022-08-05T17:53:04.642Z,44.65
2022-08-05T17:56:34.524Z,46.30
2022-08-05T17:59:05.371Z,47.04
2022-08-05T18:01:49.268Z,47.67
2022-08-05T18:04:21.049Z,47.81
2022-08-05T18:06:49.258Z,48.26
2022-08-05T18:09:19.233Z,49.85
2022-08-05T18:11:49.747Z,49.61
2022-08-05T18:14:22.251Z,49.92
2022-08-05T18:16:51.891Z,51.00
2022-08-05T18:19:22.644Z,51.81
2022-08-05T18:22:08.775Z,50.96
2022-08-05T18:24:40.361Z,51.05
2022-08-05T18:27:12.671Z,52.25
2022-08-05T18:29:54.017Z,52.45
2022-08-05T18:37:02.895Z,54.26
2022-08-05T18:40:30.979Z,55.59
2022-08-05T18:42:21.317Z,55.02
2022-08-05T18:44:55.673Z,56.51
2022-08-05T18:47:26.396Z,56.22
2022-08-05T18:50:12.879Z,56.08
2022-08-05T18:52:51.262Z,56.96
2022-08-05T18:56:25.389Z,57.34
2022-08-05T18:59:01.050Z,57.65
2022-08-05T19:01:47.846Z,58.54
2022-08-05T19:04:23.753Z,59.23
2022-08-05T19:06:54.447Z,59.88
2022-08-05T19:09:23.530Z,60.59
2022-08-05T19:12:01.022Z,62.24
2022-08-05T19:14:59.218Z,64.74
2022-08-05T19:17:22.198Z,63.60
2022-08-05T19:19:56.114Z,63.55
2022-08-05T19:22:27.808Z,62.06
2022-08-05T19:25:00.817Z,63.04
2022-08-05T19:27:30.818Z,63.23
2022-08-05T19:30:01.554Z,62.80
2022-08-05T19:32:32.121Z,63.34
2022-08-05T19:35:05.807Z,62.60
2022-08-05T19:38:04.669Z,62.65
2022-08-05T19:40:24.210Z,63.18
2022-08-05T19:43:00.872Z,64.35
2022-08-05T19:45:36.934Z,63.45
2022-08-05T19:48:05.651Z,63.76
2022-08-05T19:50:35.107Z,64.64
2022-08-05T19:53:09.418Z,64.64
2022-08-05T19:56:19.234Z,65.07
2022-08-05T19:58:29.465Z,65.61
2022-08-05T20:01:02.211Z,64.92
2022-08-05T20:03:38.714Z,68.89
2022-08-05T20:09:53.573Z,66.11
2022-08-05T20:12:23.748Z,66.76
2022-08-05T20:14:52.490Z,65.46
2022-08-05T20:17:24.692Z,66.87
2022-08-05T20:19:56.568Z,66.99
2022-08-05T20:22:27.132Z,67.50
2022-08-05T20:24:55.351Z,66.55
2022-08-05T20:27:26.694Z,67.61
2022-08-05T20:29:58.288Z,67.34
2022-08-05T20:32:28.622Z,69.32
2022-08-05T20:34:57.007Z,73.62
2022-08-05T20:38:06.227Z,70.81
2022-08-05T20:40:14.203Z,70.00
2022-08-05T20:42:41.839Z,72.13
2022-08-05T20:45:12.214Z,72.66
2022-08-05T20:47:42.284Z,70.58
2022-08-05T20:50:12.080Z,70.73
2022-08-05T20:52:42.215Z,71.03
2022-08-05T20:56:07.274Z,70.93
2022-08-05T20:57:58.409Z,70.41
2022-08-05T21:00:44.434Z,71.08
2022-08-05T21:03:21.517Z,70.64
2022-08-05T21:05:53.829Z,71.51
2022-08-05T21:08:26.682Z,70.73
2022-08-05T21:10:58.352Z,71.38
2022-08-05T21:13:48.354Z,72.20
2022-08-05T21:16:20.823Z,72.96
2022-08-05T21:18:52.350Z,73.38
2022-08-05T21:21:20.423Z,71.32
2022-08-05T21:23:52.989Z,71.46
2022-08-05T21:26:20.825Z,71.87
2022-08-05T21:28:56.227Z,71.45
2022-08-05T21:31:41.303Z,72.91
2022-08-05T21:34:11.456Z,73.79
2022-08-05T21:36:39.569Z,72.34
2022-08-05T21:39:14.249Z,74.20
2022-08-05T21:41:52.809Z,74.88
2022-08-05T21:44:28.678Z,73.07
2022-08-05T21:46:58.238Z,73.89
2022-08-05T21:49:59.336Z,74.91
2022-08-05T21:52:27.894Z,74.26
2022-08-05T21:56:09.640Z,74.55
2022-08-05T21:58:48.225Z,75.54
2022-08-05T22:01:25.900Z,74.48
2022-08-05T22:03:54.057Z,76.97
2022-08-05T22:06:35.581Z,77.01
2022-08-05T22:09:14.557Z,77.95
2022-08-05T22:11:46.970Z,76.79
2022-08-05T22:14:33.713Z,77.88
2022-08-05T22:17:06.807Z,78.83
2022-08-05T22:20:00.270Z,78.87
2022-08-05T22:22:29.828Z,78.80
2022-08-05T22:25:18.067Z,79.41
2022-08-05T22:28:11.166Z,78.21
2022-08-05T22:30:55.345Z,81.01
2022-08-05T22:33:55.898Z,82.15
2022-08-05T22:36:15.134Z,80.68
2022-08-05T22:38:48.185Z,81.79
2022-08-05T22:42:05.554Z,83.87
2022-08-05T22:44:05.818Z,81.86
2022-08-05T22:46:39.964Z,82.81
2022-08-05T22:49:12.443Z,86.64
2022-08-05T22:52:05.945Z,88.63
2022-08-05T22:54:37.360Z,89.33
2022-08-05T22:57:08.553Z,89.85
2022-08-05T22:59:43.966Z,89.92
2022-08-05T23:02:17.891Z,90.69
2022-08-05T23:04:51.949Z,91.78
2022-08-05T23:07:22.251Z,89.86
2022-08-05T23:10:01.731Z,90.13
2022-08-05T23:12:32.585Z,88.37
2022-08-05T23:15:01.346Z,89.55
2022-08-05T23:17:37.156Z,91.93
2022-08-05T23:20:10.546Z,94.37
2022-08-05T23:22:47.736Z,95.23
2022-08-05T23:25:53.523Z,95.48
2022-08-05T23:28:08.828Z,96.15
2022-08-05T23:30:40.633Z,96.93
2022-08-05T23:33:22.092Z,96.50
2022-08-05T23:35:56.303Z,96.58
2022-08-05T23:38:25.907Z,98.21
2022-08-05T23:40:55.303Z,97.92
2022-08-05T23:43:37.312Z,97.95
2022-08-05T23:46:20.215Z,98.33
2022-08-05T23:49:52.209Z,99.82
2022-08-05T23:52:30.732Z,98.88
2022-08-05T23:55:00.745Z,100.00
2022-08-05T23:57:32.769Z,99.33
